Cape Hatteras Natl Seashore, North Carolina
Current Conditions -  °F | °C
As of 4:51 AM on Thursday 23 Oct 2014 (Local Time) from KHSE Reporting Station
Clear Clear  
Wind Chill: 12°   Ceiling: Unl
Heat Index: 12°   Visibility: 10mi
Dew Point:   Wind: 15mph
Humidity: 80%   Direction: 310°NW
Pressure: 29.89"   Gusts: 22mph
Location:  35.22°N, 75.68°W
Report Text: KHSE 230851Z AUTO 31013G19KT 10SM CLR 12/09 A2989 RMK AO2 PK WND 32026/0755 SLP121 T01220089 55005 TSNO
Loading
Personal Weather Stations






























Interactive Weather Map
Tropical Storm Tracking
New forecast layout! Learn more

10-Day Weather Forecast

Advertisements
Track Severe Weather on mobile